Rockton, IL (61072)

7:29 AM CDT on October 20, 2014 (GMT -0500)
Newark Township | Change Station
CLOSE
Current Station
Personal Weather Station
Location: Beloit, WI
Elevation: 781 ft
Nearby Weather Stations

Elev 781 ft 42.53 °N, 89.20 °W | Updated 11 minutes ago

Partly Cloudy
Partly Cloudy
44.9 °F
Feels Like 45 °F
N
0.0
Wind Variable Wind from WNW
Gusts 3.0 mph

Today
High -- | Low -- °F
--% Chance of Precip.
Yesterday
High -- | Low -- °F
Precip. -- in
7:15 AM 6:06 PM
Waning Crescent, 11% visible
Pressure 29.80 in
Visibility 10.0 miles
Clouds Scattered Clouds 6500 ft
Windchill 45 °F
Dew Point 43 °F
Humidity 92%
Rainfall -999.00 in
Snow Depth Not available.
UV 0 out of 12
Pollen 1.80 out of 12
Ozone Good
PM2.5 Good
Flu Activity No Activity
METAR KJVL 201145Z 00000KT 10SM SCT065 05/04 A2980

More Conditions Fewer Conditions

Pressure 29.80 in
Visibility 10.0 miles
Clouds Scattered Clouds 6500 ft
Windchill 45 °F
Dew Point 43 °F
Humidity 92%
Rainfall -999.00 in
Snow Depth Not available.
UV 0 out of 12
Pollen 1.80 out of 12
Ozone Good
PM2.5 Good
Flu Activity No Activity
METAR KJVL 201145Z 00000KT 10SM SCT065 05/04 A2980

More Conditions Fewer Conditions

10-Day Weather Forecast

Almanac

Astronomy

Oct. 20, 2014 Rise Set
Actual Time 7:15 AM CDT 6:06 PM CDT
Civil Twilight 6:46 AM CDT 6:35 PM CDT
Nautical Twilight 6:14 AM CDT 7:07 PM CDT
Astronomical Twilight 5:41 AM CDT 7:40 PM CDT
Moon 3:59 AM CDT 4:32 PM CDT
Length of Visible Light 11h 48m
Length of Day
10h 51m
Waning Crescent, 11% of the Moon is Illuminated
Today
Waning Crescent
Oct 23
New
Oct 30
First Quarter
Nov 6
Full
Nov 14
Last Quarter

Today's Extremes

State Highs State Lows

Community

WunderPhotos

Upload Photos

1,763,349 photos uploaded!

WunderBlogs® & News

Nearby

Air Quality

  Air Quality AQ Index Pollutant
Yesterday Good
PM2.5
Yesterday Good
OZONE
Current Good
PM2.5
Current Good
OZONE
Monday Good
PM2.5
Tuesday Good
PM2.5
Wednesday Good
PM2.5

Snow Depth

Station Depth Elevation
No new snow has been reported.

Earthquake Activity

City Distance Mag. Time & Date
No recent earthquake activity has been reported nearby.
Minimum magnitude displayed is 2.5.

Coastal Water Temperatures

Place Temperature
No Stations Reporting

Nearby Weather Stations